createdAt,value
2022-08-11T00:02:33.612Z,80.00
2022-08-11T00:05:08.358Z,80.20
2022-08-11T00:07:43.475Z,80.50
2022-08-11T00:10:13.786Z,80.50
2022-08-11T00:12:43.379Z,80.70
2022-08-11T00:15:14.101Z,80.70
2022-08-11T00:17:42.817Z,81.10
2022-08-11T00:20:16.735Z,81.10
2022-08-11T00:22:47.580Z,81.00
2022-08-11T00:25:18.027Z,81.20
2022-08-11T00:27:47.394Z,81.00
2022-08-11T00:30:18.130Z,81.40
2022-08-11T00:32:58.936Z,81.60
2022-08-11T00:35:54.226Z,81.90
2022-08-11T00:38:25.720Z,82.00
2022-08-11T00:41:00.623Z,81.80
2022-08-11T00:43:48.432Z,82.00
2022-08-11T00:46:30.783Z,82.00
2022-08-11T00:49:11.915Z,82.30
2022-08-11T00:52:03.880Z,82.40
2022-08-11T00:55:05.137Z,82.70
2022-08-11T00:57:54.575Z,82.50
2022-08-11T01:00:25.061Z,83.10
2022-08-11T01:03:17.931Z,83.80
2022-08-11T01:06:04.546Z,84.10
2022-08-11T01:09:03.009Z,84.30
2022-08-11T01:11:59.700Z,84.40
2022-08-11T01:15:16.103Z,84.40
2022-08-11T01:18:32.982Z,84.40
2022-08-11T01:21:34.475Z,84.00
2022-08-11T01:24:59.308Z,84.50
2022-08-11T01:28:05.964Z,84.60
2022-08-11T01:31:10.335Z,84.90
2022-08-11T01:34:23.059Z,85.30
2022-08-11T01:37:18.019Z,85.20
2022-08-11T01:40:30.709Z,85.50
2022-08-11T01:43:50.344Z,85.40
2022-08-11T01:46:27.892Z,85.80
2022-08-11T01:50:06.409Z,85.50
2022-08-11T01:52:19.011Z,85.40
2022-08-11T01:54:54.201Z,86.00
2022-08-11T01:57:33.986Z,86.40
2022-08-11T02:00:09.598Z,86.80
2022-08-11T02:02:47.634Z,87.20
2022-08-11T02:05:41.600Z,87.50
2022-08-11T02:08:22.246Z,87.70
2022-08-11T02:11:35.596Z,88.00
2022-08-11T02:14:22.525Z,88.20
2022-08-11T02:17:03.608Z,88.50
2022-08-11T02:19:59.343Z,88.80
2022-08-11T02:22:51.866Z,89.20
2022-08-11T02:25:30.433Z,89.30
2022-08-11T02:28:04.615Z,89.50
2022-08-11T02:30:38.363Z,89.70
2022-08-11T02:33:24.732Z,90.00
2022-08-11T02:36:09.094Z,90.20
2022-08-11T02:38:45.344Z,90.60
2022-08-11T02:41:40.751Z,90.80
2022-08-11T02:44:25.803Z,90.90
2022-08-11T02:47:14.591Z,91.00
2022-08-11T02:49:59.927Z,91.00
2022-08-11T02:52:46.352Z,91.10
2022-08-11T02:55:56.036Z,91.10
2022-08-11T02:58:27.176Z,91.50
2022-08-11T03:01:11.636Z,91.20
2022-08-11T03:03:52.530Z,91.30
2022-08-11T03:06:28.252Z,91.20
2022-08-11T03:09:04.499Z,91.60
2022-08-11T03:12:09.748Z,92.10
2022-08-11T03:15:05.634Z,92.10
2022-08-11T03:17:39.024Z,92.20
2022-08-11T03:20:33.305Z,92.40
2022-08-11T03:23:20.025Z,92.70
2022-08-11T03:25:54.793Z,92.90
2022-08-11T03:28:31.483Z,93.30
2022-08-11T03:31:17.180Z,93.60
2022-08-11T03:34:07.873Z,93.80
2022-08-11T03:37:34.386Z,94.00
2022-08-11T03:40:12.452Z,94.30
2022-08-11T03:42:47.385Z,94.70
2022-08-11T03:45:27.394Z,94.90
2022-08-11T03:48:16.010Z,95.10
2022-08-11T03:51:02.530Z,95.00
2022-08-11T03:53:49.163Z,94.80
2022-08-11T03:57:09.742Z,94.80
2022-08-11T04:00:16.646Z,95.10
2022-08-11T04:03:13.882Z,95.40
2022-08-11T04:06:17.446Z,95.80
2022-08-11T04:09:16.662Z,96.20
2022-08-11T04:12:14.828Z,96.40
2022-08-11T04:15:56.226Z,96.40
2022-08-11T04:18:51.787Z,96.40
2022-08-11T04:21:37.962Z,96.90
2022-08-11T04:24:39.963Z,97.10
2022-08-11T04:27:47.857Z,97.00
2022-08-11T04:30:23.107Z,97.40
2022-08-11T04:33:19.588Z,97.50
2022-08-11T04:35:59.141Z,97.80
2022-08-11T04:38:47.149Z,98.40
2022-08-11T04:42:06.250Z,98.60
2022-08-11T04:45:07.035Z,98.70
2022-08-11T04:48:08.800Z,98.60
2022-08-11T04:51:17.526Z,98.70
2022-08-11T04:54:14.294Z,99.20
2022-08-11T04:57:03.598Z,99.80
2022-08-11T05:00:30.973Z,99.80
2022-08-11T05:03:41.778Z,99.70
2022-08-11T05:06:45.187Z,99.70
2022-08-11T05:09:30.001Z,99.60
2022-08-11T05:12:27.048Z,99.40
2022-08-11T05:15:13.409Z,99.10
2022-08-11T05:18:03.668Z,98.90
2022-08-11T05:21:05.186Z,99.00
2022-08-11T05:23:54.220Z,99.10
2022-08-11T05:26:47.640Z,99.10
2022-08-11T05:29:54.708Z,98.50
2022-08-11T05:32:42.745Z,98.00
2022-08-11T05:35:15.839Z,98.30
2022-08-11T05:38:21.503Z,98.20
2022-08-11T05:41:09.089Z,97.70
2022-08-11T05:44:20.897Z,97.70
2022-08-11T05:47:07.738Z,97.80
2022-08-11T05:49:53.987Z,97.30
2022-08-11T05:52:42.193Z,97.40
2022-08-11T05:55:31.588Z,97.20
2022-08-11T05:58:03.351Z,97.20
2022-08-11T06:00:32.377Z,96.90
2022-08-11T06:03:07.387Z,96.60
2022-08-11T06:05:43.175Z,96.10
2022-08-11T06:08:13.693Z,95.90
2022-08-11T06:10:45.319Z,96.00
2022-08-11T06:13:17.957Z,96.00
2022-08-11T06:15:48.342Z,95.80
2022-08-11T06:18:18.031Z,95.60
2022-08-11T06:20:48.980Z,95.50
2022-08-11T06:23:19.611Z,95.30
2022-08-11T06:25:50.199Z,95.40
2022-08-11T06:28:21.346Z,95.10
2022-08-11T06:30:50.756Z,94.70
2022-08-11T06:33:22.648Z,94.70
2022-08-11T06:36:03.923Z,94.70
2022-08-11T06:38:47.988Z,94.60
2022-08-11T06:41:34.488Z,94.50
2022-08-11T06:44:13.199Z,94.20
2022-08-11T06:46:44.643Z,94.20
2022-08-11T06:49:28.791Z,93.90
2022-08-11T06:52:01.794Z,93.50
2022-08-11T06:54:38.662Z,93.10
2022-08-11T06:57:30.697Z,92.90
2022-08-11T07:00:17.843Z,92.40
2022-08-11T07:02:50.451Z,91.40
2022-08-11T07:05:24.353Z,90.60
2022-08-11T07:09:03.738Z,89.40
2022-08-11T07:12:12.696Z,88.50
2022-08-11T07:15:08.573Z,86.00
2022-08-11T07:17:43.861Z,85.70
2022-08-11T07:20:31.331Z,83.90
2022-08-11T07:23:19.996Z,83.90
2022-08-11T07:26:11.317Z,83.60
2022-08-11T07:28:58.802Z,81.40
2022-08-11T07:31:42.266Z,80.40
2022-08-11T07:34:20.279Z,80.20
2022-08-11T07:36:52.538Z,80.40
2022-08-11T07:39:23.674Z,80.30
2022-08-11T07:41:54.728Z,81.00
2022-08-11T07:44:30.697Z,79.50
2022-08-11T07:47:19.418Z,78.30
2022-08-11T07:50:09.009Z,78.80
2022-08-11T07:52:40.641Z,79.10
2022-08-11T07:55:14.650Z,79.20
2022-08-11T07:58:16.068Z,77.90
2022-08-11T08:01:10.342Z,78.20
2022-08-11T08:04:03.729Z,78.60
2022-08-11T08:06:51.483Z,78.00
2022-08-11T08:09:39.693Z,77.70
2022-08-11T08:12:27.423Z,77.30
2022-08-11T08:15:14.703Z,77.50
2022-08-11T08:18:20.399Z,76.80
2022-08-11T08:20:45.568Z,75.70
2022-08-11T08:23:14.548Z,74.40
2022-08-11T08:25:44.845Z,74.10
2022-08-11T08:28:17.653Z,74.20
2022-08-11T08:30:49.924Z,74.80
2022-08-11T08:33:22.079Z,75.50
2022-08-11T08:36:11.917Z,76.00
2022-08-11T08:38:42.311Z,75.90
2022-08-11T08:41:13.402Z,75.60
2022-08-11T08:43:49.896Z,74.60
2022-08-11T08:46:21.915Z,73.80
2022-08-11T08:48:52.169Z,73.10
2022-08-11T08:51:58.611Z,73.00
2022-08-11T08:54:26.815Z,72.70
2022-08-11T08:56:57.411Z,73.10
2022-08-11T08:59:47.717Z,71.90
2022-08-11T09:02:17.324Z,70.90
2022-08-11T09:04:47.959Z,69.30
2022-08-11T09:07:19.272Z,67.70
2022-08-11T09:09:49.521Z,67.00
2022-08-11T09:12:46.342Z,67.00
2022-08-11T09:15:11.723Z,64.20
2022-08-11T09:17:42.602Z,62.00
2022-08-11T09:20:16.040Z,61.80
2022-08-11T09:24:07.928Z,61.00
2022-08-11T09:26:14.657Z,59.00
2022-08-11T09:28:44.130Z,57.50
2022-08-11T09:31:13.730Z,54.90
2022-08-11T09:33:43.883Z,55.30
2022-08-11T09:36:31.495Z,51.80
2022-08-11T09:39:19.538Z,54.50
2022-08-11T09:42:00.969Z,57.10
2022-08-11T09:44:52.907Z,58.90
2022-08-11T09:47:24.534Z,58.60
2022-08-11T09:49:56.265Z,58.10
2022-08-11T09:52:26.240Z,58.90
2022-08-11T09:54:56.633Z,60.00
2022-08-11T09:57:43.846Z,59.40
2022-08-11T10:00:15.233Z,55.50
2022-08-11T10:02:46.291Z,50.80
2022-08-11T10:05:36.394Z,47.80
2022-08-11T10:08:05.840Z,47.80
2022-08-11T10:10:38.709Z,46.30
2022-08-11T10:14:31.122Z,40.80
2022-08-11T10:16:15.842Z,40.10
2022-08-11T10:18:53.069Z,37.80
2022-08-11T10:21:36.040Z,41.20
2022-08-11T10:24:23.735Z,38.30
2022-08-11T10:26:55.782Z,37.10
2022-08-11T10:29:44.463Z,35.40
2022-08-11T10:32:46.332Z,36.10
2022-08-11T10:35:28.112Z,43.20
2022-08-11T10:38:06.603Z,47.40
2022-08-11T10:40:40.288Z,47.80
2022-08-11T10:43:14.240Z,48.20
2022-08-11T10:46:03.359Z,48.90
2022-08-11T10:48:36.385Z,50.20
2022-08-11T10:51:13.961Z,51.20
2022-08-11T10:54:03.003Z,51.40
2022-08-11T10:56:50.091Z,49.90
2022-08-11T10:59:20.008Z,49.20
2022-08-11T11:01:48.515Z,50.70
2022-08-11T11:04:19.271Z,51.90
2022-08-11T11:06:56.217Z,52.20
2022-08-11T11:09:32.635Z,52.40
2022-08-11T11:12:25.313Z,52.70
2022-08-11T11:15:17.992Z,52.40
2022-08-11T11:18:01.678Z,51.90
2022-08-11T11:20:37.747Z,50.20
2022-08-11T11:23:13.623Z,49.80
2022-08-11T11:26:15.001Z,50.60
2022-08-11T11:29:16.501Z,51.70
2022-08-11T11:32:00.336Z,52.40
2022-08-11T11:34:53.624Z,52.00
2022-08-11T11:37:23.725Z,51.10
2022-08-11T11:39:53.043Z,51.50
2022-08-11T11:42:23.051Z,50.70
2022-08-11T11:44:55.609Z,50.70
2022-08-11T11:47:26.521Z,49.90
2022-08-11T11:49:55.912Z,49.50
2022-08-11T11:52:25.360Z,50.50
2022-08-11T11:54:57.286Z,50.40
2022-08-11T11:57:58.801Z,51.30
2022-08-11T12:00:46.115Z,51.00
2022-08-11T12:03:16.139Z,51.30
2022-08-11T12:05:46.003Z,49.50
2022-08-11T12:08:16.251Z,49.30
2022-08-11T12:10:47.103Z,48.70
2022-08-11T12:13:34.177Z,48.70
2022-08-11T12:16:34.444Z,48.60
2022-08-11T12:18:57.512Z,48.60
2022-08-11T12:21:26.925Z,48.90
2022-08-11T12:24:14.928Z,51.20
2022-08-11T12:27:15.690Z,53.30
2022-08-11T12:29:54.239Z,53.60
2022-08-11T12:32:25.486Z,54.20
2022-08-11T12:34:57.009Z,52.90
2022-08-11T12:37:30.655Z,52.30
2022-08-11T12:40:43.635Z,51.80
2022-08-11T12:43:37.291Z,51.70
2022-08-11T12:46:09.994Z,50.20
2022-08-11T12:49:03.014Z,48.60
2022-08-11T12:52:14.084Z,48.40
2022-08-11T12:54:57.975Z,49.20
2022-08-11T12:57:50.261Z,50.10
2022-08-11T13:00:37.767Z,50.00
2022-08-11T13:03:26.333Z,49.80
2022-08-11T13:05:57.645Z,49.00
2022-08-11T13:08:29.646Z,48.70
2022-08-11T13:11:19.625Z,48.90
2022-08-11T13:13:55.270Z,49.40
2022-08-11T13:16:27.690Z,50.80
2022-08-11T13:18:56.798Z,51.30
2022-08-11T13:21:25.381Z,50.80
2022-08-11T13:24:00.409Z,50.30
2022-08-11T13:26:47.075Z,50.90
2022-08-11T13:29:20.146Z,50.60
2022-08-11T13:31:48.870Z,50.80
2022-08-11T13:34:17.996Z,50.80
2022-08-11T13:36:46.856Z,49.60
2022-08-11T13:39:16.797Z,47.10
2022-08-11T13:41:47.920Z,46.70
2022-08-11T13:44:24.664Z,46.40
2022-08-11T13:46:55.471Z,47.00
2022-08-11T13:49:24.436Z,47.10
2022-08-11T13:51:53.695Z,45.80
2022-08-11T13:54:26.559Z,45.10
2022-08-11T13:56:56.996Z,44.80
2022-08-11T13:59:29.582Z,45.70
2022-08-11T14:02:28.268Z,50.30
2022-08-11T14:04:55.971Z,60.00
2022-08-11T14:07:26.943Z,74.70
2022-08-11T14:10:00.031Z,99.90
2022-08-11T14:12:49.761Z,99.90
2022-08-11T14:15:21.515Z,99.90
2022-08-11T14:17:53.871Z,99.90
2022-08-11T14:20:39.450Z,99.90
2022-08-11T14:23:10.977Z,99.90
2022-08-11T14:26:03.020Z,99.90
2022-08-11T14:28:40.264Z,99.90
2022-08-11T14:31:13.228Z,99.90
2022-08-11T14:34:00.645Z,99.90
2022-08-11T14:36:33.122Z,99.90
2022-08-11T14:39:04.554Z,99.90
2022-08-11T14:42:11.119Z,99.90
2022-08-11T14:45:00.645Z,99.90
2022-08-11T14:47:31.986Z,99.90
2022-08-11T14:50:10.339Z,99.90
2022-08-11T14:52:46.813Z,99.90
2022-08-11T14:55:33.420Z,99.90
2022-08-11T14:58:04.364Z,99.90
2022-08-11T15:00:34.748Z,99.90
2022-08-11T15:03:10.913Z,99.90
2022-08-11T15:05:56.177Z,99.90
2022-08-11T15:08:48.804Z,99.90
2022-08-11T15:11:36.386Z,99.90
2022-08-11T15:14:09.477Z,99.90
2022-08-11T15:16:56.340Z,99.90
2022-08-11T15:19:40.520Z,99.90
2022-08-11T15:22:28.236Z,99.90
2022-08-11T15:24:56.997Z,99.90
2022-08-11T15:27:43.998Z,99.90
2022-08-11T15:30:32.975Z,99.90
2022-08-11T15:33:25.371Z,99.90
2022-08-11T15:36:12.109Z,99.90
2022-08-11T15:38:45.587Z,99.90
2022-08-11T15:41:35.725Z,99.90
2022-08-11T15:44:33.785Z,99.90
2022-08-11T15:47:14.385Z,99.90
2022-08-11T15:50:10.639Z,99.90
2022-08-11T15:52:39.317Z,99.90
2022-08-11T15:55:09.190Z,99.90
2022-08-11T15:57:56.497Z,99.90
2022-08-11T16:00:43.171Z,99.90
2022-08-11T16:04:06.321Z,99.90
2022-08-11T16:06:22.479Z,99.90
2022-08-11T16:08:56.377Z,99.90
2022-08-11T16:11:26.129Z,99.90
2022-08-11T16:14:13.126Z,99.90
2022-08-11T16:16:45.798Z,99.90
2022-08-11T16:19:16.866Z,99.90
2022-08-11T16:21:45.926Z,99.90
2022-08-11T16:27:02.676Z,99.90
2022-08-11T16:27:13.433Z,99.90
2022-08-11T16:29:45.405Z,99.90
2022-08-11T16:32:20.747Z,99.90
2022-08-11T16:35:15.920Z,99.90
2022-08-11T16:38:03.623Z,99.90
2022-08-11T16:40:33.612Z,99.90
2022-08-11T16:43:22.036Z,99.90
2022-08-11T16:46:08.072Z,99.90
2022-08-11T16:48:41.522Z,99.90
2022-08-11T16:51:13.940Z,99.90
2022-08-11T16:53:47.359Z,99.90
2022-08-11T16:56:36.925Z,99.90
2022-08-11T16:59:16.007Z,99.90
2022-08-11T17:01:49.402Z,99.90
2022-08-11T17:04:49.782Z,99.90
2022-08-11T17:07:41.464Z,99.90
2022-08-11T17:10:50.936Z,99.90
2022-08-11T17:13:29.081Z,99.90
2022-08-11T17:16:08.109Z,99.90
2022-08-11T17:18:43.423Z,99.90
2022-08-11T17:21:17.488Z,99.90
2022-08-11T17:23:50.365Z,99.90
2022-08-11T17:26:21.956Z,99.90
2022-08-11T17:28:54.079Z,99.90
2022-08-11T17:31:41.702Z,99.90
2022-08-11T17:34:27.620Z,99.90
2022-08-11T17:36:56.866Z,99.90
2022-08-11T17:39:30.766Z,99.90
2022-08-11T17:42:18.746Z,99.90
2022-08-11T17:45:04.777Z,99.90
2022-08-11T17:47:52.609Z,99.90
2022-08-11T17:50:22.129Z,99.90
2022-08-11T17:53:08.623Z,99.90
2022-08-11T17:55:57.997Z,99.90
2022-08-11T17:58:44.824Z,99.90
2022-08-11T18:01:13.687Z,99.90
2022-08-11T18:03:57.636Z,99.90
2022-08-11T18:06:33.605Z,99.90
2022-08-11T18:09:22.704Z,99.90
2022-08-11T18:12:12.980Z,99.90
2022-08-11T18:15:00.713Z,99.90
2022-08-11T18:17:46.561Z,99.90
2022-08-11T18:20:32.082Z,99.90
2022-08-11T18:23:41.831Z,99.90
2022-08-11T18:26:30.619Z,99.90
2022-08-11T18:29:19.099Z,99.90
2022-08-11T18:32:08.236Z,99.90
2022-08-11T18:34:59.116Z,99.90
2022-08-11T18:37:49.259Z,99.90
2022-08-11T18:40:38.539Z,99.90
2022-08-11T18:43:28.169Z,99.90
2022-08-11T18:46:19.969Z,99.90
2022-08-11T18:49:11.856Z,99.90
2022-08-11T18:52:04.853Z,99.90
2022-08-11T18:54:53.232Z,99.90
2022-08-11T18:57:47.021Z,99.90
2022-08-11T19:00:37.501Z,99.90
2022-08-11T19:03:25.582Z,99.90
2022-08-11T19:06:38.220Z,99.90
2022-08-11T19:09:20.862Z,99.90
2022-08-11T19:12:07.864Z,99.90
2022-08-11T19:14:54.439Z,99.90
2022-08-11T19:17:45.935Z,99.90
2022-08-11T19:20:36.306Z,99.90
2022-08-11T19:23:23.901Z,99.90
2022-08-11T19:26:09.312Z,99.90
2022-08-11T19:28:58.469Z,99.90
2022-08-11T19:31:45.540Z,99.90
2022-08-11T19:34:34.392Z,99.90
2022-08-11T19:37:25.077Z,99.90
2022-08-11T19:40:12.135Z,99.90
2022-08-11T19:42:59.986Z,99.90
2022-08-11T19:45:52.958Z,99.90
2022-08-11T19:48:40.588Z,99.90
2022-08-11T19:51:27.621Z,99.90
2022-08-11T19:54:16.423Z,99.90
2022-08-11T19:57:04.228Z,99.90
2022-08-11T19:59:51.399Z,99.90
2022-08-11T20:02:38.218Z,99.90
2022-08-11T20:05:25.344Z,99.90
2022-08-11T20:08:12.529Z,99.90
2022-08-11T20:11:00.886Z,99.90
2022-08-11T20:13:47.724Z,99.90
2022-08-11T20:16:38.869Z,99.90
2022-08-11T20:19:25.935Z,99.90
2022-08-11T20:22:32.992Z,99.90
2022-08-11T20:25:19.747Z,99.90
2022-08-11T20:28:08.951Z,99.90
2022-08-11T20:30:55.422Z,99.90
2022-08-11T20:33:42.643Z,99.90
2022-08-11T20:36:30.503Z,99.90
2022-08-11T20:39:18.532Z,99.90
2022-08-11T20:42:06.340Z,99.90
2022-08-11T20:44:55.972Z,99.90
2022-08-11T20:47:59.150Z,99.90
2022-08-11T20:50:47.524Z,99.90
2022-08-11T20:53:35.784Z,99.90
2022-08-11T20:56:28.474Z,99.90
2022-08-11T20:59:17.698Z,99.90
2022-08-11T21:02:09.610Z,99.90
2022-08-11T21:04:57.415Z,99.90
2022-08-11T21:10:57.212Z,99.90
2022-08-11T21:13:46.392Z,99.90
2022-08-11T21:16:35.375Z,99.90
2022-08-11T21:20:00.490Z,99.90
2022-08-11T21:22:38.323Z,99.90
2022-08-11T21:25:29.399Z,99.90
2022-08-11T21:28:22.042Z,99.90
2022-08-11T21:31:08.736Z,99.90
2022-08-11T21:33:55.951Z,99.90
2022-08-11T21:36:44.443Z,99.90
2022-08-11T21:39:35.155Z,99.90
2022-08-11T21:42:23.068Z,99.90
2022-08-11T21:45:10.285Z,99.90
2022-08-11T21:48:01.114Z,99.90
2022-08-11T21:50:47.369Z,99.90
2022-08-11T21:53:34.776Z,99.90
2022-08-11T21:56:22.465Z,99.90
2022-08-11T21:59:14.838Z,99.90
2022-08-11T22:02:01.363Z,99.90
2022-08-11T22:04:49.570Z,99.90
2022-08-11T22:07:39.528Z,99.90
2022-08-11T22:10:41.921Z,99.90
2022-08-11T22:13:29.999Z,99.90
2022-08-11T22:16:16.472Z,99.90
2022-08-11T22:19:03.529Z,99.90
2022-08-11T22:22:02.480Z,99.90
2022-08-11T22:24:51.428Z,99.90
2022-08-11T22:27:38.972Z,99.90
2022-08-11T22:30:27.100Z,99.90
2022-08-11T22:33:15.300Z,99.90
2022-08-11T22:36:01.935Z,99.90
2022-08-11T22:38:49.511Z,99.90
2022-08-11T22:41:35.761Z,99.90
2022-08-11T22:44:23.176Z,99.90
2022-08-11T22:47:10.541Z,99.90
2022-08-11T22:50:00.887Z,99.90
2022-08-11T22:52:48.034Z,99.90
2022-08-11T22:55:34.570Z,99.90
2022-08-11T22:58:22.213Z,99.90
2022-08-11T23:01:09.959Z,99.90
2022-08-11T23:03:56.449Z,99.90
2022-08-11T23:06:43.136Z,99.90
2022-08-11T23:09:29.153Z,99.90
2022-08-11T23:12:16.221Z,99.90
2022-08-11T23:15:02.284Z,99.90
2022-08-11T23:17:50.526Z,99.90
2022-08-11T23:20:42.233Z,99.90
2022-08-11T23:23:40.285Z,99.90
2022-08-11T23:26:26.302Z,99.90
2022-08-11T23:29:16.727Z,99.90
2022-08-11T23:32:04.454Z,99.90
2022-08-11T23:35:03.950Z,99.90
2022-08-11T23:37:51.257Z,99.90
2022-08-11T23:40:36.665Z,99.90
2022-08-11T23:43:23.327Z,99.90
2022-08-11T23:46:09.022Z,99.90
2022-08-11T23:48:56.062Z,99.90
2022-08-11T23:51:44.241Z,99.90
2022-08-11T23:54:36.477Z,99.90
2022-08-11T23:57:23.464Z,99.90
